Startpagina
METAR-TAF:

METAR-TAF

Vliegvelden :

Luchthaven N'djili

Kinshasa, Congo

breedte: 04-23S, lengte: 015-26E, hoogte: 309 m

Actueel weer

Dit bericht is 41 minuten geleden gemaakt, om 18:00 UTC
Wind 10 kt uit het westen
Temperatuur 23°C
Vochtigheid 83%
Druk 1014 hPa
Zicht: 6000 m
Gebroken wolken op 1600 ft

METAR: FZAA 151800Z 28010KT 6000 BKN016 23/20 Q1014 NOSIG

Tijdstip: 19:41 (18:41 UTC)

Verwachting

Dit bericht is 1 uur en het 41 minuten geleden gemaakt, om 17:00 UTC
Verwachting geldig van 15 om 18 UTC tot 16 om 24 UTC
Wind 4 kt uit het zuidwesten
Zicht: 6000 m
Verspreide wolken op 1800 ft
Wijzigt naar
van 16 om 03 UTC tot 16 om 05 UTC
Zicht: 3000 m
Gebroken wolken op 1400 ft
nevel
Wijzigt naar
van 16 om 10 UTC tot 16 om 12 UTC
Wind 10 kt uit het westnoordwesten
Zicht: 6000 m
Verspreide wolken op 2000 ft

TAF: FZAA 151700Z 1518/1624 22004KT 6000 SCT018 BECMG 1603/1605 3000 BR BKN014 BECMG 1610/1612 30010KT 6000 NSW SCT020

Waarnemingen en weersverwachtingen van meer dan 4000 vliegvelden (METAR en TAF).

De beschikbare stations zijn de gele en rode punten op de kaart.

Ga met uw muis naar het station om de naam te zien.

Klik dan om waarnemingen en weersverwachtingen te zien.

kaart wijzigen: klik op de groene knoppen met een zwart kruis om in te zoomen, op de groene knop met een streepje om uit te zoomen of op de groene pijlen voor aangrenzende kaarten.


METAR-TAF: